• Join FlightAware (Why Join?)
  • Login
  • US Flag 
Rudolph Flight #1: Scheduled 
11:48PM EST


 

Airport Tracker/Info


-or-


 

Live Flight TrackerFlight Track Log ✈ ASQ5745 ✈ 18-Jul-2013 ✈ KIAD - KALB

Flight Track Log - Related Links

Times and Time Zones

All times are in EDT time to prevent confusion due to time zone crossing. See the ASQ5745 flight status page for this flight to view local times or setup timezone preferences in your user account.

Time Position Orientation Groundspeed Altitude Reporting Facility
EDT Latitude Longitude Course Direction KTS MPH feet Rate Location/Type
08:35AM 39.0167 -77.4833 North 243 280 2,600  Level Potomac TRACON
08:36AM 39.0833 -77.5167 339° North 264 304 5,100 2,400 Climbing Potomac TRACON
08:37AM 39.3077 -77.4500 North  Level FlightAware Approximate
08:37AM 39.1667 -77.5000 North 275 316 7,500  Level Potomac TRACON
08:38AM 39.4012 -77.4500 North  Level FlightAware Approximate
08:38AM 39.2333 -77.5000 360° North 286 329 9,800  Level Potomac TRACON
08:39AM 39.4948 -77.4500 North  Level FlightAware Approximate
08:40AM 39.5884 -77.4500 North  Level FlightAware Approximate
08:40AM 39.3694 -77.4869 North 315 362 11,600  Level Washington Center
08:40AM 39.4614 -77.4758 North 333 383 13,100 1,500 Climbing Washington Center
08:41AM 39.5594 -77.4650 North 338 389 14,600 1,380 Climbing Washington Center
08:43AM 39.6800 -77.4556 North 356 410 16,200 1,080 Climbing New York Center
08:44AM 39.7719 -77.4536 North 356 410 17,100 900 Climbing New York Center
08:45AM 39.8889 -77.4511 North 372 428 18,000 1,140 Climbing New York Center
08:46AM 39.9953 -77.4506 360° North 377 434 19,400 1,620 Climbing New York Center
08:47AM 40.0975 -77.4494 360° North 377 434 21,200 1,440 Climbing New York Center
08:48AM 40.1911 -77.4150 16° North 345 397 22,400 1,080 Climbing New York Center
08:49AM 40.2875 -77.3697 20° North 355 409 23,400 960 Climbing New York Center
08:50AM 40.3911 -77.3469 10° North 362 417 24,400 780 Climbing New York Center
08:51AM 40.4944 -77.3214 11° North 362 417 25,000 300 Climbing New York Center
08:52AM 40.5867 -77.2781 20° North 374 430 25,100 480 Climbing New York Center
08:53AM 40.6819 -77.2106 28° Northeast 374 430 26,000 420 Climbing New York Center
08:54AM 40.7775 -77.1428 28° Northeast 382 440 26,000  Level New York Center
08:55AM 40.8750 -77.0694 30° Northeast 388 447 26,000  Level New York Center
08:56AM 40.9725 -77.0017 28° Northeast 394 453 26,000  Level New York Center
08:57AM 41.0697 -76.9333 28° Northeast 394 453 26,000  Level New York Center
08:58AM 41.1647 -76.8675 28° Northeast 394 453 26,000  Level New York Center
08:59AM 41.2622 -76.7964 29° Northeast 394 453 26,000  Level New York Center
09:00AM 41.3597 -76.7247 29° Northeast 394 453 26,000  Level New York Center
09:01AM 41.4567 -76.6558 28° Northeast 394 453 26,000  Level New York Center
09:02AM 41.5542 -76.5842 29° Northeast 394 453 26,000  Level New York Center
09:03AM 41.6511 -76.5147 28° Northeast 394 453 26,000  Level New York Center
09:04AM 41.7528 -76.4400 29° Northeast 389 448 26,000 -300 Level New York Center
09:05AM 41.8261 -76.3822 30° Northeast 389 448 25,500 -660 Descending New York Center
09:07AM 42.0325 -76.2333 28° Northeast 379 436 24,000 -540 Descending Boston Center
09:08AM 42.1189 -76.1464 37° Northeast 379 436 24,000  Level Boston Center
09:09AM 42.1569 -76.0028 70° East 366 421 24,000  Level Boston Center
09:10AM 42.1989 -75.8594 68° East 384 442 24,000  Level Boston Center
09:11AM 42.2383 -75.7158 70° East 397 457 24,000  Level Boston Center
09:12AM 42.2689 -75.5994 70° East 402 463 24,000 -600 Level Boston Center
09:13AM 42.3153 -75.4278 70° East 402 463 22,900 -1,500 Descending Boston Center
09:14AM 42.3522 -75.2889 70° East 397 457 21,000 -1,980 Descending Boston Center
09:15AM 42.3886 -75.1614 69° East 386 444 19,000 -2,100 Descending Boston Center
09:16AM 42.4250 -75.0333 69° East 373 429 16,900 -2,100 Descending Boston Center
09:17AM 42.4589 -74.9083 70° East 363 418 14,900 -2,220 Descending Boston Center
09:18AM 42.4842 -74.8022 72° East 340 391 13,100 -1,980 Descending Boston Center
09:19AM 42.5225 -74.6656 69° East 326 375 11,000 -960 Descending Boston Center
09:20AM 42.5392 -74.5592 78° East 314 361 11,000 -840 Level Boston Center
09:21AM 42.5600 -74.4303 78° East 320 368 9,400 -1,680 Descending Boston Center
09:22AM 42.5742 -74.3319 79° East 305 351 7,700 -1,920 Descending Boston Center
09:23AM 42.5931 -74.2111 78° East 292 336 5,600 -1,860 Descending Boston Center
09:24AM 42.6069 -74.1186 78° East 282 325 4,000 -1,080 Descending Boston Center
09:25AM 42.6272 -74.0061 76° East 272 313 3,500 -300 Descending Boston Center
09:26AM 42.6411 -73.9050 79° East 278 320 3,400 -120 Descending Boston Center